createdAt,value
2024-04-12T00:02:10.188Z,49.55
2024-04-12T00:04:38.022Z,52.38
2024-04-12T00:07:16.583Z,52.20
2024-04-12T00:09:46.543Z,49.97
2024-04-12T00:12:14.437Z,49.54
2024-04-12T00:14:45.990Z,48.85
2024-04-12T00:17:18.308Z,49.78
2024-04-12T00:19:47.670Z,50.48
2024-04-12T00:22:16.130Z,48.76
2024-04-12T00:24:43.745Z,48.63
2024-04-12T00:27:10.986Z,50.39
2024-04-12T00:29:39.592Z,50.00
2024-04-12T00:32:19.844Z,50.22
2024-04-12T00:34:53.574Z,50.86
2024-04-12T00:37:22.800Z,51.38
2024-04-12T00:39:51.505Z,53.04
2024-04-12T00:42:41.217Z,55.18
2024-04-12T00:45:13.525Z,53.12
2024-04-12T00:47:43.465Z,53.59
2024-04-12T00:50:10.560Z,52.53
2024-04-12T00:52:39.927Z,53.25
2024-04-12T00:55:11.321Z,53.15
2024-04-12T00:57:40.186Z,53.61
2024-04-12T01:00:12.665Z,53.87
2024-04-12T01:02:41.642Z,53.79
2024-04-12T01:05:16.468Z,54.40
2024-04-12T01:07:57.760Z,52.59
2024-04-12T01:10:27.535Z,54.50
2024-04-12T01:12:57.742Z,54.60
2024-04-12T01:15:26.879Z,55.57
2024-04-12T01:17:54.184Z,55.62
2024-04-12T01:20:26.632Z,57.55
2024-04-12T01:22:59.553Z,57.24
2024-04-12T01:25:29.061Z,57.20
2024-04-12T01:27:57.159Z,57.92
2024-04-12T01:30:24.427Z,57.96
2024-04-12T01:32:54.158Z,56.44
2024-04-12T01:35:25.421Z,57.73
2024-04-12T01:37:53.388Z,57.55
2024-04-12T01:40:24.354Z,57.08
2024-04-12T01:42:53.324Z,55.60
2024-04-12T01:45:28.749Z,56.38
2024-04-12T01:47:56.808Z,56.37
2024-04-12T01:50:24.291Z,57.39
2024-04-12T01:52:55.664Z,57.35
2024-04-12T01:55:27.278Z,59.03
2024-04-12T01:57:57.364Z,59.63
2024-04-12T02:00:26.107Z,59.14
2024-04-12T02:02:55.307Z,59.79
2024-04-12T02:05:35.933Z,61.06
2024-04-12T02:08:09.164Z,59.51
2024-04-12T02:10:37.306Z,61.13
2024-04-12T02:13:04.972Z,61.83
2024-04-12T02:15:31.868Z,61.91
2024-04-12T02:17:59.234Z,62.39
2024-04-12T02:20:35.456Z,64.53
2024-04-12T02:23:06.653Z,63.67
2024-04-12T02:25:37.811Z,58.21
2024-04-12T02:28:09.592Z,56.40
2024-04-12T02:30:45.638Z,57.19
2024-04-12T02:33:18.009Z,59.53
2024-04-12T02:35:45.974Z,60.65
2024-04-12T02:38:17.233Z,57.47
2024-04-12T02:40:45.154Z,57.03
2024-04-12T02:43:16.655Z,57.10
2024-04-12T02:45:50.804Z,60.33
2024-04-12T02:48:18.324Z,61.44
2024-04-12T02:50:45.671Z,63.75
2024-04-12T02:53:19.119Z,63.47
2024-04-12T02:55:48.756Z,63.28
2024-04-12T02:58:15.655Z,60.85
2024-04-12T03:00:42.562Z,63.74
2024-04-12T03:03:09.674Z,64.31
2024-04-12T03:05:36.668Z,61.23
2024-04-12T03:08:03.751Z,62.69
2024-04-12T03:10:33.625Z,65.06
2024-04-12T03:13:01.469Z,67.26
2024-04-12T03:15:28.672Z,66.49
2024-04-12T03:17:56.384Z,62.69
2024-04-12T03:20:23.385Z,63.36
2024-04-12T03:22:50.226Z,60.54
2024-04-12T03:25:17.144Z,60.52
2024-04-12T03:27:45.070Z,65.95
2024-04-12T03:30:18.036Z,67.15
2024-04-12T03:32:46.192Z,66.09
2024-04-12T03:35:21.556Z,63.71
2024-04-12T03:38:11.480Z,66.96
2024-04-12T03:40:38.290Z,66.17
2024-04-12T03:43:05.148Z,62.35
2024-04-12T03:45:32.221Z,67.09
2024-04-12T03:47:59.543Z,69.21
2024-04-12T03:50:31.975Z,66.21
2024-04-12T03:53:15.912Z,64.86
2024-04-12T03:55:46.455Z,62.47
2024-04-12T03:58:18.667Z,67.07
2024-04-12T04:00:48.744Z,70.28
2024-04-12T04:03:33.909Z,70.48
2024-04-12T04:06:08.920Z,71.01
2024-04-12T04:08:50.020Z,70.26
2024-04-12T04:11:17.668Z,73.33
2024-04-12T04:13:48.391Z,70.02
2024-04-12T04:16:18.173Z,68.93
2024-04-12T04:18:51.684Z,68.54
2024-04-12T04:21:18.788Z,66.91
2024-04-12T04:23:45.703Z,70.38
2024-04-12T04:26:12.660Z,69.33
2024-04-12T04:28:39.522Z,69.94
2024-04-12T04:31:09.324Z,71.96
2024-04-12T04:33:39.964Z,68.65
2024-04-12T04:36:13.888Z,67.55
2024-04-12T04:38:40.966Z,69.87
2024-04-12T04:41:08.594Z,72.17
2024-04-12T04:43:35.534Z,71.17
2024-04-12T04:46:23.481Z,68.14
2024-04-12T04:48:51.296Z,71.99
2024-04-12T04:51:18.740Z,71.71
2024-04-12T04:53:45.742Z,66.07
2024-04-12T04:56:14.084Z,67.39
2024-04-12T04:58:43.945Z,68.99
2024-04-12T05:01:12.764Z,65.00
2024-04-12T05:03:40.406Z,69.60
2024-04-12T05:06:07.967Z,70.12
2024-04-12T05:08:37.198Z,60.21
2024-04-12T05:11:07.510Z,65.98
2024-04-12T05:13:39.498Z,65.56
2024-04-12T05:16:12.981Z,64.40
2024-04-12T05:18:39.919Z,60.69
2024-04-12T05:21:06.983Z,61.79
2024-04-12T05:23:34.083Z,59.91
2024-04-12T05:26:03.005Z,59.60
2024-04-12T05:28:29.889Z,58.00
2024-04-12T05:30:56.917Z,61.35
2024-04-12T05:33:25.175Z,62.27
2024-04-12T05:35:52.667Z,57.21
2024-04-12T05:38:23.238Z,58.21
2024-04-12T05:40:55.041Z,59.95
2024-04-12T05:43:23.926Z,57.69
2024-04-12T05:45:52.600Z,55.27
2024-04-12T05:48:26.007Z,50.58
2024-04-12T05:50:57.644Z,48.67
2024-04-12T05:53:26.481Z,54.66
2024-04-12T05:56:16.037Z,54.07
2024-04-12T05:58:43.117Z,47.30
2024-04-12T06:01:11.029Z,49.93
2024-04-12T06:03:44.275Z,51.00
2024-04-12T06:06:15.265Z,48.38
2024-04-12T06:08:49.353Z,50.85
2024-04-12T06:11:18.760Z,45.87
2024-04-12T06:13:49.407Z,45.10
2024-04-12T06:16:19.103Z,49.48
2024-04-12T06:18:47.234Z,46.22
2024-04-12T06:21:14.280Z,50.07
2024-04-12T06:23:41.364Z,45.37
2024-04-12T06:26:08.285Z,46.53
2024-04-12T06:28:38.309Z,45.71
2024-04-12T06:31:07.249Z,41.58
2024-04-12T06:33:35.183Z,42.73
2024-04-12T06:36:06.858Z,42.96
2024-04-12T06:38:34.280Z,43.49
2024-04-12T06:41:04.990Z,41.74
2024-04-12T06:43:35.324Z,39.27
2024-04-12T06:46:11.833Z,41.57
2024-04-12T06:48:41.903Z,41.88
2024-04-12T06:51:13.219Z,44.40
2024-04-12T06:53:45.755Z,41.42
2024-04-12T06:56:18.352Z,43.16
2024-04-12T06:58:49.766Z,42.22
2024-04-12T07:01:23.551Z,40.32
2024-04-12T07:03:54.458Z,40.07
2024-04-12T07:06:21.831Z,40.55
2024-04-12T07:08:52.168Z,40.52
2024-04-12T07:11:20.590Z,39.67
2024-04-12T07:13:54.935Z,40.91
2024-04-12T07:16:22.776Z,42.66
2024-04-12T07:18:52.987Z,42.41
2024-04-12T07:21:24.740Z,40.12
2024-04-12T07:23:52.422Z,42.78
2024-04-12T07:26:26.621Z,41.64
2024-04-12T07:29:01.289Z,39.95
2024-04-12T07:31:35.955Z,40.60
2024-04-12T07:34:03.992Z,40.10
2024-04-12T07:36:34.146Z,41.15
2024-04-12T07:39:05.621Z,41.81
2024-04-12T07:41:34.691Z,41.89
2024-04-12T07:44:06.067Z,40.13
2024-04-12T07:46:36.915Z,38.52
2024-04-12T07:49:05.095Z,38.63
2024-04-12T07:51:41.317Z,40.03
2024-04-12T07:54:13.746Z,39.41
2024-04-12T07:56:44.956Z,41.69
2024-04-12T07:59:17.601Z,40.38
2024-04-12T08:01:48.040Z,42.44
2024-04-12T08:04:39.547Z,40.60
2024-04-12T08:07:19.256Z,40.51
2024-04-12T08:09:47.667Z,39.74
2024-04-12T08:12:16.456Z,40.67
2024-04-12T08:14:54.926Z,41.82
2024-04-12T08:17:41.263Z,39.59
2024-04-12T08:20:15.386Z,38.74
2024-04-12T08:22:46.131Z,38.00
2024-04-12T08:25:20.121Z,38.88
2024-04-12T08:27:48.693Z,38.14
2024-04-12T08:30:21.412Z,38.20
2024-04-12T08:32:51.637Z,38.00
2024-04-12T08:35:22.187Z,37.18
2024-04-12T08:37:54.199Z,38.10
2024-04-12T08:40:23.137Z,37.59
2024-04-12T08:42:50.589Z,37.33
2024-04-12T08:45:21.277Z,38.18
2024-04-12T08:47:53.972Z,37.98
2024-04-12T08:50:26.032Z,37.25
2024-04-12T08:52:55.616Z,38.41
2024-04-12T08:55:30.448Z,38.19
2024-04-12T08:58:02.757Z,36.33
2024-04-12T09:00:34.888Z,36.68
2024-04-12T09:03:28.066Z,35.12
2024-04-12T09:05:55.823Z,36.83
2024-04-12T09:08:32.302Z,35.56
2024-04-12T09:11:05.022Z,35.67
2024-04-12T09:13:35.238Z,34.90
2024-04-12T09:16:05.042Z,36.21
2024-04-12T09:18:46.625Z,35.62
2024-04-12T09:21:26.591Z,36.37
2024-04-12T09:23:58.290Z,37.18
2024-04-12T09:26:27.110Z,34.52
2024-04-12T09:29:03.582Z,35.77
2024-04-12T09:31:50.893Z,34.90
2024-04-12T09:34:33.741Z,34.51
2024-04-12T09:37:03.928Z,36.24
2024-04-12T09:40:04.790Z,33.68
2024-04-12T09:42:47.110Z,32.19
2024-04-12T09:45:22.638Z,31.87
2024-04-12T09:48:10.600Z,31.54
2024-04-12T09:50:56.878Z,33.87
2024-04-12T09:53:42.451Z,31.41
2024-04-12T09:56:33.158Z,32.01
2024-04-12T09:59:48.755Z,32.29
2024-04-12T10:02:38.969Z,31.49
2024-04-12T10:05:28.927Z,31.19
2024-04-12T10:08:29.818Z,31.28
2024-04-12T10:11:18.259Z,31.27
2024-04-12T10:14:05.047Z,29.71
2024-04-12T10:17:02.314Z,29.04
2024-04-12T10:19:47.913Z,30.06
2024-04-12T10:22:34.477Z,30.41
2024-04-12T10:25:24.007Z,30.09
2024-04-12T10:28:11.357Z,29.63
2024-04-12T10:31:04.346Z,30.15
2024-04-12T10:33:50.437Z,28.73
2024-04-12T10:36:36.143Z,29.15
2024-04-12T10:39:13.609Z,28.16
2024-04-12T10:41:42.993Z,28.90
2024-04-12T10:44:12.012Z,29.82
2024-04-12T10:46:38.946Z,28.97
2024-04-12T10:49:07.041Z,29.28
2024-04-12T10:51:40.621Z,27.54
2024-04-12T10:54:11.865Z,28.27
2024-04-12T10:56:49.343Z,28.09
2024-04-12T10:59:28.866Z,28.32
2024-04-12T11:02:01.986Z,28.12
2024-04-12T11:04:51.834Z,28.60
2024-04-12T11:07:19.167Z,27.45
2024-04-12T11:09:58.857Z,29.32
2024-04-12T11:12:41.802Z,26.54
2024-04-12T11:15:21.509Z,27.40
2024-04-12T11:18:10.460Z,27.40
2024-04-12T11:21:03.886Z,26.97
2024-04-12T11:23:49.606Z,27.28
2024-04-12T11:26:36.643Z,26.19
2024-04-12T11:29:25.469Z,28.37
2024-04-12T11:31:54.387Z,26.39
2024-04-12T11:34:32.325Z,27.08
2024-04-12T11:37:09.183Z,26.44
2024-04-12T11:39:37.780Z,27.55
2024-04-12T11:42:05.978Z,26.59
2024-04-12T11:44:37.254Z,27.08
2024-04-12T11:47:05.636Z,26.73
2024-04-12T11:49:50.877Z,26.53
2024-04-12T11:52:18.615Z,25.87
2024-04-12T11:54:53.469Z,26.78
2024-04-12T11:57:24.318Z,27.07
2024-04-12T12:00:01.753Z,25.99
2024-04-12T12:02:30.158Z,25.47
2024-04-12T12:04:58.234Z,25.51
2024-04-12T12:07:28.034Z,26.42
2024-04-12T12:09:55.320Z,27.15
2024-04-12T12:12:28.420Z,26.16
2024-04-12T12:14:55.812Z,25.91
2024-04-12T12:17:22.939Z,25.88
2024-04-12T12:19:53.987Z,25.32
2024-04-12T12:22:23.300Z,26.13
2024-04-12T12:24:51.087Z,26.21
2024-04-12T12:27:23.324Z,26.32
2024-04-12T12:29:52.859Z,26.94
2024-04-12T12:32:20.552Z,25.96
2024-04-12T12:34:48.620Z,25.97
2024-04-12T12:37:15.559Z,26.80
2024-04-12T12:39:43.100Z,26.75
2024-04-12T12:42:11.568Z,26.61
2024-04-12T12:44:38.671Z,26.42
2024-04-12T12:47:09.516Z,26.50
2024-04-12T12:49:47.920Z,25.90
2024-04-12T12:52:15.566Z,26.28
2024-04-12T12:54:44.709Z,26.96
2024-04-12T12:57:13.416Z,26.16
2024-04-12T12:59:44.763Z,26.03
2024-04-12T13:02:18.605Z,26.18
2024-04-12T13:04:48.230Z,25.88
2024-04-12T13:07:17.812Z,26.14
2024-04-12T13:09:45.210Z,26.08
2024-04-12T13:12:12.237Z,25.28
2024-04-12T13:14:41.223Z,25.98
2024-04-12T13:17:15.437Z,26.29
2024-04-12T13:19:43.428Z,25.87
2024-04-12T13:22:13.565Z,25.81
2024-04-12T13:24:42.026Z,26.37
2024-04-12T13:27:09.115Z,26.00
2024-04-12T13:29:38.382Z,26.30
2024-04-12T13:32:11.801Z,25.66
2024-04-12T13:34:39.064Z,25.23
2024-04-12T13:37:08.093Z,26.29
2024-04-12T13:39:38.226Z,26.21
2024-04-12T13:42:12.823Z,25.18
2024-04-12T13:44:59.011Z,25.52
2024-04-12T13:47:44.931Z,25.54
2024-04-12T13:50:30.376Z,25.52
2024-04-12T13:52:58.520Z,24.53
2024-04-12T13:55:25.846Z,25.30
2024-04-12T13:57:54.646Z,24.40
2024-04-12T14:00:34.402Z,24.14
2024-04-12T14:03:08.330Z,24.43
2024-04-12T14:05:36.541Z,24.77
2024-04-12T14:08:11.737Z,25.15
2024-04-12T14:10:39.397Z,25.26
2024-04-12T14:13:07.202Z,24.99
2024-04-12T14:15:36.612Z,25.08
2024-04-12T14:18:04.781Z,24.75
2024-04-12T14:20:31.782Z,24.44
2024-04-12T14:22:58.643Z,25.31
2024-04-12T14:25:28.001Z,25.41
2024-04-12T14:27:55.224Z,25.54
2024-04-12T14:30:22.953Z,24.58
2024-04-12T14:32:53.335Z,25.75
2024-04-12T14:35:21.798Z,25.53
2024-04-12T14:37:49.482Z,25.90
2024-04-12T14:40:23.551Z,24.93
2024-04-12T14:42:54.078Z,25.25
2024-04-12T14:45:22.879Z,25.29
2024-04-12T14:47:59.060Z,25.11
2024-04-12T14:50:34.414Z,26.29
2024-04-12T14:53:03.485Z,26.92
2024-04-12T14:55:32.004Z,27.02
2024-04-12T14:57:59.151Z,27.27
2024-04-12T15:00:29.697Z,26.96
2024-04-12T15:02:56.983Z,27.38
2024-04-12T15:05:44.334Z,27.32
2024-04-12T15:08:31.808Z,26.91
2024-04-12T15:11:17.695Z,27.04
2024-04-12T15:14:03.197Z,27.33
2024-04-12T15:16:48.623Z,27.12
2024-04-12T15:19:34.000Z,26.42
2024-04-12T15:22:19.590Z,25.74
2024-04-12T15:25:04.952Z,26.04
2024-04-12T15:27:50.472Z,26.01
2024-04-12T15:30:35.985Z,26.98
2024-04-12T15:33:21.455Z,27.20
2024-04-12T15:36:09.823Z,27.29
2024-04-12T15:38:55.830Z,26.55
2024-04-12T15:41:41.254Z,27.16
2024-04-12T15:44:26.866Z,26.62
2024-04-12T15:47:03.039Z,26.46
2024-04-12T15:49:49.788Z,26.96
2024-04-12T15:52:18.205Z,26.81
2024-04-12T15:54:56.657Z,28.21
2024-04-12T15:57:42.410Z,27.77
2024-04-12T16:00:28.295Z,28.10
2024-04-12T16:03:14.682Z,28.01
2024-04-12T16:06:01.355Z,28.41
2024-04-12T16:08:48.627Z,29.30
2024-04-12T16:11:15.780Z,29.61
2024-04-12T16:13:44.958Z,30.17
2024-04-12T16:16:11.992Z,29.83
2024-04-12T16:18:38.923Z,29.65
2024-04-12T16:21:05.922Z,29.77
2024-04-12T16:23:33.010Z,29.59
2024-04-12T16:26:03.864Z,31.37
2024-04-12T16:28:33.985Z,31.55
2024-04-12T16:31:03.423Z,32.22
2024-04-12T16:33:32.770Z,33.12
2024-04-12T16:35:59.984Z,32.94
2024-04-12T16:38:27.323Z,33.23
2024-04-12T16:40:54.344Z,33.08
2024-04-12T16:43:21.266Z,33.41
2024-04-12T16:45:48.372Z,34.16
2024-04-12T16:48:15.635Z,34.19
2024-04-12T16:50:42.888Z,34.40
2024-04-12T16:53:09.746Z,34.88
2024-04-12T16:55:36.608Z,34.07
2024-04-12T16:58:06.020Z,34.65
2024-04-12T17:00:33.125Z,34.76
2024-04-12T17:03:00.184Z,34.83
2024-04-12T17:05:27.135Z,35.30
2024-04-12T17:07:54.236Z,34.98
2024-04-12T17:10:22.827Z,35.10
2024-04-12T17:12:53.573Z,35.56
2024-04-12T17:15:20.759Z,34.78
2024-04-12T17:17:47.957Z,35.38
2024-04-12T17:20:15.249Z,36.08
2024-04-12T17:22:42.229Z,37.68
2024-04-12T17:25:10.031Z,38.08
2024-04-12T17:27:37.617Z,38.78
2024-04-12T17:30:06.899Z,38.74
2024-04-12T17:32:38.148Z,39.86
2024-04-12T17:35:07.592Z,40.36
2024-04-12T17:37:35.033Z,40.80
2024-04-12T17:40:05.115Z,40.27
2024-04-12T17:42:32.116Z,39.56
2024-04-12T17:45:00.336Z,40.74
2024-04-12T17:47:27.387Z,40.97
2024-04-12T17:49:57.646Z,40.25
2024-04-12T17:52:30.493Z,40.84
2024-04-12T17:54:57.333Z,40.70
2024-04-12T17:57:24.825Z,41.22
2024-04-12T17:59:54.594Z,39.78
2024-04-12T18:02:23.724Z,39.70
2024-04-12T18:04:50.880Z,39.53
2024-04-12T18:07:17.917Z,39.77
2024-04-12T18:09:47.645Z,39.61
2024-04-12T18:12:14.584Z,40.16
2024-04-12T18:14:42.141Z,40.08
2024-04-12T18:17:09.526Z,40.47
2024-04-12T18:19:39.780Z,40.74
2024-04-12T18:22:13.226Z,40.05
2024-04-12T18:24:40.078Z,40.54
2024-04-12T18:27:07.637Z,40.61
2024-04-12T18:29:37.543Z,41.21
2024-04-12T18:32:09.726Z,41.76
2024-04-12T18:34:38.785Z,42.39
2024-04-12T18:37:24.601Z,42.77
2024-04-12T18:40:11.203Z,42.84
2024-04-12T18:42:56.439Z,42.13
2024-04-12T18:45:23.883Z,43.47
2024-04-12T18:47:50.929Z,42.62
2024-04-12T18:50:20.713Z,41.70
2024-04-12T18:52:49.299Z,41.31
2024-04-12T18:55:17.894Z,42.22
2024-04-12T18:57:44.715Z,44.81
2024-04-12T19:00:13.584Z,43.31
2024-04-12T19:02:40.518Z,42.66
2024-04-12T19:05:07.994Z,43.77
2024-04-12T19:07:35.177Z,43.42
2024-04-12T19:10:05.959Z,44.62
2024-04-12T19:12:37.354Z,44.86
2024-04-12T19:15:05.361Z,46.61
2024-04-12T19:17:34.945Z,45.94
2024-04-12T19:20:01.834Z,45.59
2024-04-12T19:22:29.196Z,45.22
2024-04-12T19:24:56.039Z,44.49
2024-04-12T19:27:23.029Z,43.96
2024-04-12T19:29:50.182Z,44.74
2024-04-12T19:32:17.569Z,44.29
2024-04-12T19:34:44.568Z,45.30
2024-04-12T19:37:11.606Z,45.48
2024-04-12T19:39:38.607Z,47.14
2024-04-12T19:42:07.971Z,45.79
2024-04-12T19:44:38.120Z,46.31
2024-04-12T19:47:06.814Z,45.66
2024-04-12T19:49:36.518Z,45.05
2024-04-12T19:52:07.741Z,46.03
2024-04-12T19:54:35.705Z,46.37
2024-04-12T19:57:04.535Z,45.83
2024-04-12T19:59:31.483Z,46.67
2024-04-12T20:01:58.398Z,45.97
2024-04-12T20:04:25.352Z,47.31
2024-04-12T20:06:53.140Z,48.43
2024-04-12T20:09:20.966Z,47.66
2024-04-12T20:11:47.970Z,48.72
2024-04-12T20:14:15.093Z,48.10
2024-04-12T20:16:42.145Z,46.76
2024-04-12T20:19:11.025Z,48.22
2024-04-12T20:21:38.343Z,48.49
2024-04-12T20:24:05.792Z,46.99
2024-04-12T20:26:37.372Z,45.96
2024-04-12T20:29:06.290Z,46.14
2024-04-12T20:31:38.950Z,46.92
2024-04-12T20:34:06.923Z,47.64
2024-04-12T20:36:39.926Z,47.30
2024-04-12T20:39:09.006Z,46.88
2024-04-12T20:41:37.232Z,49.25
2024-04-12T20:44:06.431Z,51.80
2024-04-12T20:46:34.138Z,52.99
2024-04-12T20:49:01.775Z,50.49
2024-04-12T20:51:28.923Z,49.22
2024-04-12T20:53:57.847Z,48.20
2024-04-12T20:56:26.432Z,47.99
2024-04-12T20:58:54.397Z,47.69
2024-04-12T21:01:25.525Z,48.00
2024-04-12T21:03:52.760Z,51.81
2024-04-12T21:06:20.801Z,52.01
2024-04-12T21:08:47.891Z,53.13
2024-04-12T21:11:21.788Z,52.90
2024-04-12T21:13:52.359Z,53.75
2024-04-12T21:16:19.910Z,54.72
2024-04-12T21:18:48.620Z,53.24
2024-04-12T21:21:17.727Z,53.79
2024-04-12T21:23:44.938Z,53.77
2024-04-12T21:26:11.958Z,55.08
2024-04-12T21:28:41.687Z,54.20
2024-04-12T21:31:09.498Z,54.06
2024-04-12T21:33:37.720Z,54.02
2024-04-12T21:36:06.735Z,54.79
2024-04-12T21:38:40.319Z,54.97
2024-04-12T21:41:15.707Z,55.04
2024-04-12T21:43:50.535Z,54.91
2024-04-12T21:46:19.634Z,54.03
2024-04-12T21:48:51.001Z,54.70
2024-04-12T21:51:28.611Z,56.59
2024-04-12T21:53:55.724Z,57.57
2024-04-12T21:56:22.979Z,56.49
2024-04-12T21:58:50.688Z,55.69
2024-04-12T22:01:18.247Z,55.87
2024-04-12T22:03:45.471Z,55.37
2024-04-12T22:06:12.719Z,55.27
2024-04-12T22:08:43.289Z,55.73
2024-04-12T22:11:10.542Z,54.98
2024-04-12T22:13:38.803Z,56.48
2024-04-12T22:16:10.190Z,56.90
2024-04-12T22:18:39.248Z,55.25
2024-04-12T22:21:07.606Z,55.41
2024-04-12T22:23:39.578Z,58.87
2024-04-12T22:26:19.730Z,60.60
2024-04-12T22:28:47.940Z,63.03
2024-04-12T22:31:17.282Z,61.20
2024-04-12T22:33:49.739Z,61.56
2024-04-12T22:36:20.308Z,59.24
2024-04-12T22:38:47.957Z,59.84
2024-04-12T22:41:15.184Z,60.24
2024-04-12T22:43:42.071Z,59.71
2024-04-12T22:46:09.073Z,60.18
2024-04-12T22:48:38.458Z,63.32
2024-04-12T22:51:07.363Z,63.54
2024-04-12T22:53:34.454Z,61.67
2024-04-12T22:56:01.277Z,61.24
2024-04-12T22:58:28.175Z,62.19
2024-04-12T23:00:55.188Z,61.90
2024-04-12T23:03:22.278Z,65.72
2024-04-12T23:05:49.240Z,66.80
2024-04-12T23:08:16.175Z,67.36
2024-04-12T23:10:43.080Z,65.54
2024-04-12T23:13:13.139Z,64.96
2024-04-12T23:15:40.277Z,65.17
2024-04-12T23:18:07.272Z,64.31
2024-04-12T23:20:34.243Z,63.56
2024-04-12T23:23:01.098Z,65.48
2024-04-12T23:25:27.907Z,67.31
2024-04-12T23:27:54.741Z,67.95
2024-04-12T23:30:21.683Z,66.93
2024-04-12T23:32:48.628Z,64.37
2024-04-12T23:35:15.706Z,63.05
2024-04-12T23:37:42.622Z,64.29
2024-04-12T23:40:09.804Z,66.01
2024-04-12T23:42:36.875Z,67.64
2024-04-12T23:45:04.089Z,64.40
2024-04-12T23:47:31.127Z,62.33
2024-04-12T23:49:58.139Z,62.13
2024-04-12T23:52:27.388Z,64.74
2024-04-12T23:54:54.323Z,67.86
2024-04-12T23:57:21.324Z,66.01
2024-04-12T23:59:48.727Z,66.22
